MLZ weather

Melgoza Airport
Mexicali, Baja California, Mexico

Public forecast

Using degrees Celsius for public forecast. Weather courtesy of forecast.io.

Closest aviation weather report (METAR) to Melgoza Airport

Closest report is General Rodolfo Sánchez Taboada International Airport, 22.7 nm (42.0 km) N. Retrieved 2020/02/23 15:46 UTC (1 hour ago):

MMML 231546Z 16004KT 10SM SKC 12/05 A3019 RMK ISOL AC

Closest aviation forecast (TAF) to Melgoza Airport

Forecast is more than 6 hours old.

Closest forecast is General Rodolfo Sánchez Taboada International Airport, 22.7 nm (42.0 km) N. Retrieved 2020/02/23 06:06 UTC (11 hours ago):

TAF MMML 230358Z 2306/2406 28008KT P6SM BKN040 FM231800 32015KT P6SM BKN040 BKN250 FM240500 30006KT P6SM SCT030